sensor_id;sensor_type;location;lat;lon;timestamp;P1;durP1;ratioP1;P2;durP2;ratioP2
75423;SDS011;64005;55.160;36.002;2023-07-29T00:01:04;7.00;;;2.28;;
75423;SDS011;64005;55.160;36.002;2023-07-29T00:03:31;8.13;;;2.30;;
75423;SDS011;64005;55.160;36.002;2023-07-29T00:05:58;7.15;;;2.00;;
75423;SDS011;64005;55.160;36.002;2023-07-29T00:08:27;6.95;;;2.00;;
75423;SDS011;64005;55.160;36.002;2023-07-29T00:10:55;9.35;;;2.38;;
75423;SDS011;64005;55.160;36.002;2023-07-29T00:13:22;6.57;;;1.98;;
75423;SDS011;64005;55.160;36.002;2023-07-29T00:15:50;8.55;;;2.17;;
75423;SDS011;64005;55.160;36.002;2023-07-29T00:18:20;4.03;;;1.77;;
75423;SDS011;64005;55.160;36.002;2023-07-29T00:20:47;6.57;;;2.50;;
75423;SDS011;64005;55.160;36.002;2023-07-29T00:23:16;4.43;;;1.85;;
75423;SDS011;64005;55.160;36.002;2023-07-29T00:25:46;5.20;;;2.00;;
75423;SDS011;64005;55.160;36.002;2023-07-29T00:28:14;6.68;;;2.38;;
75423;SDS011;64005;55.160;36.002;2023-07-29T00:30:42;7.93;;;2.63;;
75423;SDS011;64005;55.160;36.002;2023-07-29T00:33:09;5.43;;;1.90;;
75423;SDS011;64005;55.160;36.002;2023-07-29T00:35:36;7.85;;;2.05;;
75423;SDS011;64005;55.160;36.002;2023-07-29T00:38:04;7.55;;;2.75;;
75423;SDS011;64005;55.160;36.002;2023-07-29T00:40:32;5.30;;;2.15;;
75423;SDS011;64005;55.160;36.002;2023-07-29T00:43:04;7.35;;;1.95;;
75423;SDS011;64005;55.160;36.002;2023-07-29T00:45:32;5.80;;;2.22;;
75423;SDS011;64005;55.160;36.002;2023-07-29T00:47:59;5.03;;;2.13;;
75423;SDS011;64005;55.160;36.002;2023-07-29T00:50:27;5.50;;;2.38;;
75423;SDS011;64005;55.160;36.002;2023-07-29T00:52:57;8.00;;;2.28;;
75423;SDS011;64005;55.160;36.002;2023-07-29T00:55:25;6.20;;;2.10;;
75423;SDS011;64005;55.160;36.002;2023-07-29T00:57:53;5.60;;;2.28;;
75423;SDS011;64005;55.160;36.002;2023-07-29T01:00:22;7.00;;;2.22;;
75423;SDS011;64005;55.160;36.002;2023-07-29T01:02:50;7.85;;;2.33;;
75423;SDS011;64005;55.160;36.002;2023-07-29T01:05:20;6.72;;;2.30;;
75423;SDS011;64005;55.160;36.002;2023-07-29T01:07:49;7.30;;;2.42;;
75423;SDS011;64005;55.160;36.002;2023-07-29T01:10:28;5.57;;;2.05;;
75423;SDS011;64005;55.160;36.002;2023-07-29T01:13:05;4.72;;;2.05;;
75423;SDS011;64005;55.160;36.002;2023-07-29T01:15:43;7.57;;;1.90;;
75423;SDS011;64005;55.160;36.002;2023-07-29T01:18:18;6.85;;;2.30;;
75423;SDS011;64005;55.160;36.002;2023-07-29T01:20:49;11.43;;;2.60;;
75423;SDS011;64005;55.160;36.002;2023-07-29T01:25:52;8.38;;;2.60;;
75423;SDS011;64005;55.160;36.002;2023-07-29T01:28:19;4.65;;;2.13;;
75423;SDS011;64005;55.160;36.002;2023-07-29T01:30:48;5.65;;;2.97;;
75423;SDS011;64005;55.160;36.002;2023-07-29T01:33:20;6.97;;;2.22;;
75423;SDS011;64005;55.160;36.002;2023-07-29T01:35:54;6.50;;;2.22;;
75423;SDS011;64005;55.160;36.002;2023-07-29T01:38:29;5.80;;;2.30;;
75423;SDS011;64005;55.160;36.002;2023-07-29T01:41:00;8.45;;;2.40;;
75423;SDS011;64005;55.160;36.002;2023-07-29T01:43:28;7.22;;;2.20;;
75423;SDS011;64005;55.160;36.002;2023-07-29T01:45:56;5.18;;;2.40;;
75423;SDS011;64005;55.160;36.002;2023-07-29T01:48:24;7.50;;;2.47;;
75423;SDS011;64005;55.160;36.002;2023-07-29T01:50:52;7.15;;;2.53;;
75423;SDS011;64005;55.160;36.002;2023-07-29T01:53:20;7.18;;;2.13;;
75423;SDS011;64005;55.160;36.002;2023-07-29T01:55:49;9.52;;;2.65;;
75423;SDS011;64005;55.160;36.002;2023-07-29T01:58:16;9.57;;;2.47;;
75423;SDS011;64005;55.160;36.002;2023-07-29T02:00:44;5.65;;;2.42;;
75423;SDS011;64005;55.160;36.002;2023-07-29T02:03:11;11.15;;;2.30;;
75423;SDS011;64005;55.160;36.002;2023-07-29T02:05:39;8.20;;;2.55;;
75423;SDS011;64005;55.160;36.002;2023-07-29T02:08:07;7.22;;;2.65;;
75423;SDS011;64005;55.160;36.002;2023-07-29T02:10:34;6.00;;;2.42;;
75423;SDS011;64005;55.160;36.002;2023-07-29T02:13:04;10.52;;;2.50;;
75423;SDS011;64005;55.160;36.002;2023-07-29T02:15:32;8.30;;;2.58;;
75423;SDS011;64005;55.160;36.002;2023-07-29T02:17:59;5.78;;;2.40;;
75423;SDS011;64005;55.160;36.002;2023-07-29T02:20:27;7.28;;;2.67;;
75423;SDS011;64005;55.160;36.002;2023-07-29T02:22:55;5.05;;;2.33;;
75423;SDS011;64005;55.160;36.002;2023-07-29T02:25:22;6.72;;;2.20;;
75423;SDS011;64005;55.160;36.002;2023-07-29T02:27:50;6.13;;;2.53;;
75423;SDS011;64005;55.160;36.002;2023-07-29T02:30:20;6.03;;;2.50;;
75423;SDS011;64005;55.160;36.002;2023-07-29T02:32:48;10.00;;;2.63;;
75423;SDS011;64005;55.160;36.002;2023-07-29T02:35:15;8.88;;;3.10;;
75423;SDS011;64005;55.160;36.002;2023-07-29T02:37:43;7.75;;;2.50;;
75423;SDS011;64005;55.160;36.002;2023-07-29T02:40:11;7.38;;;2.60;;
75423;SDS011;64005;55.160;36.002;2023-07-29T02:42:38;6.03;;;2.45;;
75423;SDS011;64005;55.160;36.002;2023-07-29T02:45:06;6.65;;;2.58;;
75423;SDS011;64005;55.160;36.002;2023-07-29T02:47:38;7.03;;;2.30;;
75423;SDS011;64005;55.160;36.002;2023-07-29T02:50:06;5.18;;;2.35;;
75423;SDS011;64005;55.160;36.002;2023-07-29T02:52:34;6.18;;;2.55;;
75423;SDS011;64005;55.160;36.002;2023-07-29T02:55:01;6.80;;;2.30;;
75423;SDS011;64005;55.160;36.002;2023-07-29T02:57:29;6.13;;;2.67;;
75423;SDS011;64005;55.160;36.002;2023-07-29T02:59:57;5.95;;;2.10;;
75423;SDS011;64005;55.160;36.002;2023-07-29T03:02:24;7.00;;;2.40;;
75423;SDS011;64005;55.160;36.002;2023-07-29T03:04:53;6.10;;;2.40;;
75423;SDS011;64005;55.160;36.002;2023-07-29T03:07:21;6.32;;;2.13;;
75423;SDS011;64005;55.160;36.002;2023-07-29T03:09:48;7.63;;;2.85;;
75423;SDS011;64005;55.160;36.002;2023-07-29T03:12:16;5.32;;;2.13;;
75423;SDS011;64005;55.160;36.002;2023-07-29T03:14:44;5.03;;;2.28;;
75423;SDS011;64005;55.160;36.002;2023-07-29T03:17:15;8.20;;;2.38;;
75423;SDS011;64005;55.160;36.002;2023-07-29T03:19:42;7.80;;;2.50;;
75423;SDS011;64005;55.160;36.002;2023-07-29T03:22:12;6.40;;;2.70;;
75423;SDS011;64005;55.160;36.002;2023-07-29T03:24:39;5.60;;;2.47;;
75423;SDS011;64005;55.160;36.002;2023-07-29T03:27:08;4.75;;;1.90;;
75423;SDS011;64005;55.160;36.002;2023-07-29T03:29:36;6.30;;;2.30;;
75423;SDS011;64005;55.160;36.002;2023-07-29T03:32:04;6.35;;;2.50;;
75423;SDS011;64005;55.160;36.002;2023-07-29T03:34:31;6.05;;;2.60;;
75423;SDS011;64005;55.160;36.002;2023-07-29T03:36:59;4.85;;;2.15;;
75423;SDS011;64005;55.160;36.002;2023-07-29T03:39:29;5.80;;;2.15;;
75423;SDS011;64005;55.160;36.002;2023-07-29T03:41:56;6.28;;;2.33;;
75423;SDS011;64005;55.160;36.002;2023-07-29T03:44:24;6.65;;;2.22;;
75423;SDS011;64005;55.160;36.002;2023-07-29T03:46:51;5.93;;;2.22;;
75423;SDS011;64005;55.160;36.002;2023-07-29T03:49:19;7.55;;;2.20;;
75423;SDS011;64005;55.160;36.002;2023-07-29T03:51:46;5.93;;;2.40;;
75423;SDS011;64005;55.160;36.002;2023-07-29T03:54:13;8.45;;;2.40;;
75423;SDS011;64005;55.160;36.002;2023-07-29T03:56:42;7.70;;;2.13;;
75423;SDS011;64005;55.160;36.002;2023-07-29T03:59:10;4.40;;;2.03;;
75423;SDS011;64005;55.160;36.002;2023-07-29T04:01:37;5.10;;;1.95;;
75423;SDS011;64005;55.160;36.002;2023-07-29T04:04:05;4.90;;;2.22;;
75423;SDS011;64005;55.160;36.002;2023-07-29T04:06:32;5.95;;;2.42;;
75423;SDS011;64005;55.160;36.002;2023-07-29T04:09:00;6.65;;;2.13;;
75423;SDS011;64005;55.160;36.002;2023-07-29T04:11:27;7.82;;;2.22;;
75423;SDS011;64005;55.160;36.002;2023-07-29T04:13:56;4.70;;;2.03;;
75423;SDS011;64005;55.160;36.002;2023-07-29T04:16:24;6.57;;;2.20;;
75423;SDS011;64005;55.160;36.002;2023-07-29T04:18:51;7.63;;;2.28;;
75423;SDS011;64005;55.160;36.002;2023-07-29T04:21:19;7.25;;;1.80;;
75423;SDS011;64005;55.160;36.002;2023-07-29T04:23:47;6.80;;;2.17;;
75423;SDS011;64005;55.160;36.002;2023-07-29T04:26:14;8.07;;;2.00;;
75423;SDS011;64005;55.160;36.002;2023-07-29T04:28:42;4.72;;;1.80;;
75423;SDS011;64005;55.160;36.002;2023-07-29T04:31:11;5.80;;;2.15;;
75423;SDS011;64005;55.160;36.002;2023-07-29T04:33:38;6.57;;;2.05;;
75423;SDS011;64005;55.160;36.002;2023-07-29T04:36:06;4.68;;;1.80;;
75423;SDS011;64005;55.160;36.002;2023-07-29T04:38:33;5.68;;;1.92;;
75423;SDS011;64005;55.160;36.002;2023-07-29T04:41:01;7.07;;;1.90;;
75423;SDS011;64005;55.160;36.002;2023-07-29T04:43:30;6.13;;;2.33;;
75423;SDS011;64005;55.160;36.002;2023-07-29T04:45:58;5.22;;;2.00;;
75423;SDS011;64005;55.160;36.002;2023-07-29T04:48:27;6.03;;;1.98;;
75423;SDS011;64005;55.160;36.002;2023-07-29T04:50:54;7.45;;;2.05;;
75423;SDS011;64005;55.160;36.002;2023-07-29T04:53:22;4.82;;;2.28;;
75423;SDS011;64005;55.160;36.002;2023-07-29T04:55:49;6.40;;;1.90;;
75423;SDS011;64005;55.160;36.002;2023-07-29T04:58:17;4.07;;;1.52;;
75423;SDS011;64005;55.160;36.002;2023-07-29T05:00:46;4.90;;;1.80;;
75423;SDS011;64005;55.160;36.002;2023-07-29T05:03:13;5.05;;;1.85;;
75423;SDS011;64005;55.160;36.002;2023-07-29T05:05:43;5.63;;;2.10;;
75423;SDS011;64005;55.160;36.002;2023-07-29T05:08:10;5.00;;;1.98;;
75423;SDS011;64005;55.160;36.002;2023-07-29T05:10:38;4.57;;;2.00;;
75423;SDS011;64005;55.160;36.002;2023-07-29T05:13:05;4.47;;;1.95;;
75423;SDS011;64005;55.160;36.002;2023-07-29T05:15:34;5.43;;;1.55;;
75423;SDS011;64005;55.160;36.002;2023-07-29T05:18:01;5.28;;;1.85;;
75423;SDS011;64005;55.160;36.002;2023-07-29T05:20:29;6.32;;;1.90;;
75423;SDS011;64005;55.160;36.002;2023-07-29T05:22:58;5.30;;;2.08;;
75423;SDS011;64005;55.160;36.002;2023-07-29T05:25:26;8.55;;;2.10;;
75423;SDS011;64005;55.160;36.002;2023-07-29T05:27:53;5.78;;;1.83;;
75423;SDS011;64005;55.160;36.002;2023-07-29T05:30:21;4.80;;;2.03;;
75423;SDS011;64005;55.160;36.002;2023-07-29T05:32:48;6.43;;;1.70;;
75423;SDS011;64005;55.160;36.002;2023-07-29T05:35:16;4.60;;;1.63;;
75423;SDS011;64005;55.160;36.002;2023-07-29T05:37:43;4.53;;;1.70;;
75423;SDS011;64005;55.160;36.002;2023-07-29T05:40:12;4.20;;;1.60;;
75423;SDS011;64005;55.160;36.002;2023-07-29T05:42:40;4.43;;;1.75;;
75423;SDS011;64005;55.160;36.002;2023-07-29T05:45:07;4.25;;;1.58;;
75423;SDS011;64005;55.160;36.002;2023-07-29T05:47:36;5.57;;;1.83;;
75423;SDS011;64005;55.160;36.002;2023-07-29T05:50:04;5.50;;;1.98;;
75423;SDS011;64005;55.160;36.002;2023-07-29T05:52:32;4.20;;;1.80;;
75423;SDS011;64005;55.160;36.002;2023-07-29T05:55:00;4.18;;;1.60;;
75423;SDS011;64005;55.160;36.002;2023-07-29T05:57:31;4.15;;;1.50;;
75423;SDS011;64005;55.160;36.002;2023-07-29T05:59:58;4.43;;;1.70;;
75423;SDS011;64005;55.160;36.002;2023-07-29T06:02:26;5.15;;;1.60;;
75423;SDS011;64005;55.160;36.002;2023-07-29T06:04:54;7.18;;;1.80;;
75423;SDS011;64005;55.160;36.002;2023-07-29T06:07:21;6.53;;;1.75;;
75423;SDS011;64005;55.160;36.002;2023-07-29T06:09:49;5.32;;;1.92;;
75423;SDS011;64005;55.160;36.002;2023-07-29T06:12:19;4.15;;;1.42;;
75423;SDS011;64005;55.160;36.002;2023-07-29T06:14:48;4.18;;;1.70;;
75423;SDS011;64005;55.160;36.002;2023-07-29T06:17:16;5.95;;;1.52;;
75423;SDS011;64005;55.160;36.002;2023-07-29T06:19:43;4.50;;;1.92;;
75423;SDS011;64005;55.160;36.002;2023-07-29T06:22:11;4.72;;;1.90;;
75423;SDS011;64005;55.160;36.002;2023-07-29T06:24:39;5.82;;;1.90;;
75423;SDS011;64005;55.160;36.002;2023-07-29T06:27:07;3.63;;;1.42;;
75423;SDS011;64005;55.160;36.002;2023-07-29T06:29:34;8.05;;;1.90;;
75423;SDS011;64005;55.160;36.002;2023-07-29T06:32:04;4.80;;;1.50;;
75423;SDS011;64005;55.160;36.002;2023-07-29T06:34:32;4.30;;;1.58;;
75423;SDS011;64005;55.160;36.002;2023-07-29T06:37:00;3.92;;;1.65;;
75423;SDS011;64005;55.160;36.002;2023-07-29T06:39:27;6.70;;;1.77;;
75423;SDS011;64005;55.160;36.002;2023-07-29T06:41:55;3.97;;;1.58;;
75423;SDS011;64005;55.160;36.002;2023-07-29T06:44:23;5.75;;;1.50;;
75423;SDS011;64005;55.160;36.002;2023-07-29T06:46:50;5.53;;;1.88;;
75423;SDS011;64005;55.160;36.002;2023-07-29T06:49:19;4.65;;;1.60;;
75423;SDS011;64005;55.160;36.002;2023-07-29T06:51:46;7.72;;;1.70;;
75423;SDS011;64005;55.160;36.002;2023-07-29T06:54:15;5.55;;;1.88;;
75423;SDS011;64005;55.160;36.002;2023-07-29T06:56:43;4.45;;;1.70;;
75423;SDS011;64005;55.160;36.002;2023-07-29T06:59:11;5.80;;;2.03;;
75423;SDS011;64005;55.160;36.002;2023-07-29T07:01:38;4.25;;;2.00;;
75423;SDS011;64005;55.160;36.002;2023-07-29T07:04:06;5.97;;;1.70;;
75423;SDS011;64005;55.160;36.002;2023-07-29T07:06:34;4.10;;;1.70;;
75423;SDS011;64005;55.160;36.002;2023-07-29T07:09:02;5.47;;;1.92;;
75423;SDS011;64005;55.160;36.002;2023-07-29T07:11:30;4.40;;;1.60;;
75423;SDS011;64005;55.160;36.002;2023-07-29T07:13:57;4.65;;;1.60;;
75423;SDS011;64005;55.160;36.002;2023-07-29T07:16:25;4.28;;;1.85;;
75423;SDS011;64005;55.160;36.002;2023-07-29T07:18:55;6.18;;;1.67;;
75423;SDS011;64005;55.160;36.002;2023-07-29T07:21:22;4.35;;;1.58;;
75423;SDS011;64005;55.160;36.002;2023-07-29T07:23:51;6.13;;;1.92;;
75423;SDS011;64005;55.160;36.002;2023-07-29T07:26:19;5.28;;;1.60;;
75423;SDS011;64005;55.160;36.002;2023-07-29T07:28:46;3.97;;;1.70;;
75423;SDS011;64005;55.160;36.002;2023-07-29T07:31:14;4.60;;;1.73;;
75423;SDS011;64005;55.160;36.002;2023-07-29T07:33:41;7.10;;;2.05;;
75423;SDS011;64005;55.160;36.002;2023-07-29T07:36:09;4.03;;;1.58;;
75423;SDS011;64005;55.160;36.002;2023-07-29T07:38:36;4.93;;;1.85;;
75423;SDS011;64005;55.160;36.002;2023-07-29T07:41:05;4.47;;;1.67;;
75423;SDS011;64005;55.160;36.002;2023-07-29T07:43:33;3.63;;;1.60;;
75423;SDS011;64005;55.160;36.002;2023-07-29T07:46:01;3.42;;;1.48;;
75423;SDS011;64005;55.160;36.002;2023-07-29T07:48:28;4.60;;;1.63;;
75423;SDS011;64005;55.160;36.002;2023-07-29T07:50:56;4.05;;;1.50;;
75423;SDS011;64005;55.160;36.002;2023-07-29T07:53:23;3.58;;;1.40;;
75423;SDS011;64005;55.160;36.002;2023-07-29T07:55:51;4.82;;;1.50;;
75423;SDS011;64005;55.160;36.002;2023-07-29T07:58:20;5.10;;;1.60;;
75423;SDS011;64005;55.160;36.002;2023-07-29T08:00:48;3.50;;;1.50;;
75423;SDS011;64005;55.160;36.002;2023-07-29T08:03:17;4.32;;;1.55;;
75423;SDS011;64005;55.160;36.002;2023-07-29T08:05:46;3.55;;;1.60;;
75423;SDS011;64005;55.160;36.002;2023-07-29T08:08:15;3.70;;;1.50;;
75423;SDS011;64005;55.160;36.002;2023-07-29T08:10:43;4.70;;;1.30;;
75423;SDS011;64005;55.160;36.002;2023-07-29T08:13:10;3.22;;;1.45;;
75423;SDS011;64005;55.160;36.002;2023-07-29T08:15:39;4.50;;;1.58;;
75423;SDS011;64005;55.160;36.002;2023-07-29T08:18:07;4.60;;;1.48;;
75423;SDS011;64005;55.160;36.002;2023-07-29T08:20:35;3.58;;;1.08;;
75423;SDS011;64005;55.160;36.002;2023-07-29T08:23:02;4.07;;;1.45;;
75423;SDS011;64005;55.160;36.002;2023-07-29T08:25:30;4.38;;;1.27;;
75423;SDS011;64005;55.160;36.002;2023-07-29T08:27:57;3.33;;;1.30;;
75423;SDS011;64005;55.160;36.002;2023-07-29T08:30:25;4.97;;;1.40;;
75423;SDS011;64005;55.160;36.002;2023-07-29T08:32:54;3.15;;;1.20;;
75423;SDS011;64005;55.160;36.002;2023-07-29T08:35:21;4.60;;;1.33;;
75423;SDS011;64005;55.160;36.002;2023-07-29T08:37:49;3.78;;;1.20;;
75423;SDS011;64005;55.160;36.002;2023-07-29T08:40:16;3.88;;;1.40;;
75423;SDS011;64005;55.160;36.002;2023-07-29T08:42:44;3.67;;;1.35;;
75423;SDS011;64005;55.160;36.002;2023-07-29T08:45:14;3.85;;;1.20;;
75423;SDS011;64005;55.160;36.002;2023-07-29T08:47:44;4.50;;;1.30;;
75423;SDS011;64005;55.160;36.002;2023-07-29T08:50:14;5.88;;;1.48;;
75423;SDS011;64005;55.160;36.002;2023-07-29T08:52:42;3.33;;;1.50;;
75423;SDS011;64005;55.160;36.002;2023-07-29T08:55:11;3.15;;;1.20;;
75423;SDS011;64005;55.160;36.002;2023-07-29T08:57:39;4.32;;;1.25;;
75423;SDS011;64005;55.160;36.002;2023-07-29T09:00:07;4.22;;;1.30;;
75423;SDS011;64005;55.160;36.002;2023-07-29T09:02:35;2.95;;;1.20;;
75423;SDS011;64005;55.160;36.002;2023-07-29T09:05:03;3.20;;;1.30;;
75423;SDS011;64005;55.160;36.002;2023-07-29T09:07:33;4.30;;;1.80;;
75423;SDS011;64005;55.160;36.002;2023-07-29T09:10:03;7.03;;;1.40;;
75423;SDS011;64005;55.160;36.002;2023-07-29T09:12:32;4.25;;;1.27;;
75423;SDS011;64005;55.160;36.002;2023-07-29T09:14:59;4.80;;;1.42;;
75423;SDS011;64005;55.160;36.002;2023-07-29T09:17:27;4.53;;;1.40;;
75423;SDS011;64005;55.160;36.002;2023-07-29T09:19:58;5.18;;;1.23;;
75423;SDS011;64005;55.160;36.002;2023-07-29T09:22:26;4.28;;;1.60;;
75423;SDS011;64005;55.160;36.002;2023-07-29T09:24:56;5.15;;;1.25;;
75423;SDS011;64005;55.160;36.002;2023-07-29T09:27:24;3.13;;;1.17;;
75423;SDS011;64005;55.160;36.002;2023-07-29T09:29:52;3.92;;;1.40;;
75423;SDS011;64005;55.160;36.002;2023-07-29T09:32:21;3.67;;;1.17;;
75423;SDS011;64005;55.160;36.002;2023-07-29T09:34:49;3.35;;;1.10;;
75423;SDS011;64005;55.160;36.002;2023-07-29T09:37:17;4.13;;;1.23;;
75423;SDS011;64005;55.160;36.002;2023-07-29T09:39:47;4.68;;;1.20;;
75423;SDS011;64005;55.160;36.002;2023-07-29T09:42:18;2.92;;;1.13;;
75423;SDS011;64005;55.160;36.002;2023-07-29T09:44:48;3.90;;;1.48;;
75423;SDS011;64005;55.160;36.002;2023-07-29T09:47:19;3.55;;;1.27;;
75423;SDS011;64005;55.160;36.002;2023-07-29T09:49:48;3.05;;;1.35;;
75423;SDS011;64005;55.160;36.002;2023-07-29T09:52:16;3.63;;;1.30;;
75423;SDS011;64005;55.160;36.002;2023-07-29T09:54:44;4.22;;;1.20;;
75423;SDS011;64005;55.160;36.002;2023-07-29T09:57:20;3.65;;;1.63;;
75423;SDS011;64005;55.160;36.002;2023-07-29T09:59:53;7.18;;;1.60;;
75423;SDS011;64005;55.160;36.002;2023-07-29T10:02:21;3.10;;;1.20;;
75423;SDS011;64005;55.160;36.002;2023-07-29T10:04:51;4.32;;;1.55;;
75423;SDS011;64005;55.160;36.002;2023-07-29T10:07:19;4.15;;;1.58;;
75423;SDS011;64005;55.160;36.002;2023-07-29T10:09:47;3.05;;;1.38;;
75423;SDS011;64005;55.160;36.002;2023-07-29T10:12:20;3.42;;;1.20;;
75423;SDS011;64005;55.160;36.002;2023-07-29T12:04:28;2.90;;;1.00;;
75423;SDS011;64005;55.160;36.002;2023-07-29T13:56:04;7.75;;;3.75;;
75423;SDS011;64005;55.160;36.002;2023-07-29T13:58:32;2.90;;;1.10;;
75423;SDS011;64005;55.160;36.002;2023-07-29T14:00:59;5.90;;;1.40;;
75423;SDS011;64005;55.160;36.002;2023-07-29T14:03:27;4.40;;;1.50;;
75423;SDS011;64005;55.160;36.002;2023-07-29T14:05:54;4.18;;;1.42;;
75423;SDS011;64005;55.160;36.002;2023-07-29T14:08:21;3.10;;;1.05;;
75423;SDS011;64005;55.160;36.002;2023-07-29T14:10:49;3.70;;;1.27;;
75423;SDS011;64005;55.160;36.002;2023-07-29T14:13:18;5.63;;;1.15;;
75423;SDS011;64005;55.160;36.002;2023-07-29T14:15:52;2.55;;;1.05;;
75423;SDS011;64005;55.160;36.002;2023-07-29T14:18:19;3.53;;;1.38;;
75423;SDS011;64005;55.160;36.002;2023-07-29T15:09:12;3.67;;;1.15;;
75423;SDS011;64005;55.160;36.002;2023-07-29T15:17:41;3.92;;;1.65;;
75423;SDS011;64005;55.160;36.002;2023-07-29T15:30:59;6.15;;;2.35;;
75423;SDS011;64005;55.160;36.002;2023-07-29T15:33:27;4.25;;;2.00;;
75423;SDS011;64005;55.160;36.002;2023-07-29T16:23:11;6.57;;;1.52;;
75423;SDS011;64005;55.160;36.002;2023-07-29T16:33:26;3.60;;;1.33;;
75423;SDS011;64005;55.160;36.002;2023-07-29T16:35:54;5.90;;;1.60;;
75423;SDS011;64005;55.160;36.002;2023-07-29T16:50:58;4.28;;;1.67;;
75423;SDS011;64005;55.160;36.002;2023-07-29T16:53:26;5.20;;;1.80;;
75423;SDS011;64005;55.160;36.002;2023-07-29T16:55:55;5.00;;;2.00;;
75423;SDS011;64005;55.160;36.002;2023-07-29T16:58:22;4.53;;;1.70;;
75423;SDS011;64005;55.160;36.002;2023-07-29T17:00:50;5.97;;;1.80;;
75423;SDS011;64005;55.160;36.002;2023-07-29T17:03:17;5.25;;;1.70;;
75423;SDS011;64005;55.160;36.002;2023-07-29T17:05:45;4.63;;;1.60;;
75423;SDS011;64005;55.160;36.002;2023-07-29T17:20:36;7.55;;;1.92;;
75423;SDS011;64005;55.160;36.002;2023-07-29T17:23:03;6.90;;;2.08;;
75423;SDS011;64005;55.160;36.002;2023-07-29T17:25:31;5.38;;;2.10;;
75423;SDS011;64005;55.160;36.002;2023-07-29T17:30:57;4.60;;;2.05;;
75423;SDS011;64005;55.160;36.002;2023-07-29T17:33:25;5.50;;;1.90;;
75423;SDS011;64005;55.160;36.002;2023-07-29T17:35:57;6.70;;;2.50;;
75423;SDS011;64005;55.160;36.002;2023-07-29T17:38:25;13.15;;;3.25;;
75423;SDS011;64005;55.160;36.002;2023-07-29T17:43:36;6.80;;;2.10;;
75423;SDS011;64005;55.160;36.002;2023-07-29T17:46:11;5.95;;;1.75;;
75423;SDS011;64005;55.160;36.002;2023-07-29T17:48:39;5.68;;;2.08;;
75423;SDS011;64005;55.160;36.002;2023-07-29T17:51:06;6.53;;;2.03;;
75423;SDS011;64005;55.160;36.002;2023-07-29T17:56:10;7.20;;;1.98;;
75423;SDS011;64005;55.160;36.002;2023-07-29T17:58:44;4.45;;;1.85;;
75423;SDS011;64005;55.160;36.002;2023-07-29T18:01:13;5.75;;;2.70;;
75423;SDS011;64005;55.160;36.002;2023-07-29T18:03:41;9.18;;;2.20;;
75423;SDS011;64005;55.160;36.002;2023-07-29T18:06:21;8.27;;;2.45;;
75423;SDS011;64005;55.160;36.002;2023-07-29T18:16:56;5.60;;;1.88;;
75423;SDS011;64005;55.160;36.002;2023-07-29T18:19:23;5.90;;;1.90;;
75423;SDS011;64005;55.160;36.002;2023-07-29T18:21:55;4.47;;;1.73;;
75423;SDS011;64005;55.160;36.002;2023-07-29T18:24:24;4.18;;;1.70;;
75423;SDS011;64005;55.160;36.002;2023-07-29T18:26:51;6.40;;;1.80;;
75423;SDS011;64005;55.160;36.002;2023-07-29T18:32:35;8.23;;;1.80;;
75423;SDS011;64005;55.160;36.002;2023-07-29T18:35:03;4.20;;;1.58;;
75423;SDS011;64005;55.160;36.002;2023-07-29T18:37:31;7.00;;;2.15;;
75423;SDS011;64005;55.160;36.002;2023-07-29T18:39:58;6.53;;;1.90;;
75423;SDS011;64005;55.160;36.002;2023-07-29T18:42:26;5.00;;;1.95;;
75423;SDS011;64005;55.160;36.002;2023-07-29T18:44:54;5.20;;;1.83;;
75423;SDS011;64005;55.160;36.002;2023-07-29T18:47:21;5.30;;;2.00;;
75423;SDS011;64005;55.160;36.002;2023-07-29T18:49:50;4.55;;;1.85;;
75423;SDS011;64005;55.160;36.002;2023-07-29T18:55:02;7.15;;;2.92;;
75423;SDS011;64005;55.160;36.002;2023-07-29T18:57:30;10.80;;;3.10;;
75423;SDS011;64005;55.160;36.002;2023-07-29T18:59:58;7.28;;;3.22;;
75423;SDS011;64005;55.160;36.002;2023-07-29T19:02:26;6.57;;;3.40;;
75423;SDS011;64005;55.160;36.002;2023-07-29T19:04:55;6.78;;;2.65;;
75423;SDS011;64005;55.160;36.002;2023-07-29T19:07:23;12.90;;;2.22;;
75423;SDS011;64005;55.160;36.002;2023-07-29T19:09:51;11.18;;;2.60;;
75423;SDS011;64005;55.160;36.002;2023-07-29T19:12:23;9.57;;;2.67;;
75423;SDS011;64005;55.160;36.002;2023-07-29T19:14:51;5.00;;;2.05;;
75423;SDS011;64005;55.160;36.002;2023-07-29T19:17:19;8.68;;;2.25;;
75423;SDS011;64005;55.160;36.002;2023-07-29T19:19:47;4.80;;;2.08;;
75423;SDS011;64005;55.160;36.002;2023-07-29T19:25:25;4.68;;;1.95;;
75423;SDS011;64005;55.160;36.002;2023-07-29T19:27:53;8.35;;;2.28;;
75423;SDS011;64005;55.160;36.002;2023-07-29T19:30:20;6.20;;;2.30;;
75423;SDS011;64005;55.160;36.002;2023-07-29T19:32:48;6.70;;;2.05;;
75423;SDS011;64005;55.160;36.002;2023-07-29T19:35:15;6.70;;;2.38;;
75423;SDS011;64005;55.160;36.002;2023-07-29T19:37:43;5.93;;;1.60;;
75423;SDS011;64005;55.160;36.002;2023-07-29T19:40:11;6.60;;;2.13;;
75423;SDS011;64005;55.160;36.002;2023-07-29T19:45:19;7.50;;;1.90;;
75423;SDS011;64005;55.160;36.002;2023-07-29T19:47:47;8.93;;;1.80;;
75423;SDS011;64005;55.160;36.002;2023-07-29T19:50:15;7.68;;;2.05;;
75423;SDS011;64005;55.160;36.002;2023-07-29T19:52:42;6.35;;;1.98;;
75423;SDS011;64005;55.160;36.002;2023-07-29T19:55:10;4.65;;;1.67;;
75423;SDS011;64005;55.160;36.002;2023-07-29T19:57:39;5.25;;;1.83;;
75423;SDS011;64005;55.160;36.002;2023-07-29T20:00:09;7.18;;;1.92;;
75423;SDS011;64005;55.160;36.002;2023-07-29T20:02:38;8.13;;;2.05;;
75423;SDS011;64005;55.160;36.002;2023-07-29T20:05:06;6.93;;;2.40;;
75423;SDS011;64005;55.160;36.002;2023-07-29T20:07:34;6.63;;;2.00;;
75423;SDS011;64005;55.160;36.002;2023-07-29T20:10:05;6.13;;;1.90;;
75423;SDS011;64005;55.160;36.002;2023-07-29T20:12:33;7.85;;;1.83;;
75423;SDS011;64005;55.160;36.002;2023-07-29T20:15:01;8.70;;;1.83;;
75423;SDS011;64005;55.160;36.002;2023-07-29T20:17:34;6.97;;;1.80;;
75423;SDS011;64005;55.160;36.002;2023-07-29T20:20:02;9.27;;;1.80;;
75423;SDS011;64005;55.160;36.002;2023-07-29T20:22:31;5.88;;;1.80;;
75423;SDS011;64005;55.160;36.002;2023-07-29T20:24:59;4.22;;;1.48;;
75423;SDS011;64005;55.160;36.002;2023-07-29T20:27:28;8.25;;;1.70;;
75423;SDS011;64005;55.160;36.002;2023-07-29T20:29:55;9.20;;;1.83;;
75423;SDS011;64005;55.160;36.002;2023-07-29T20:32:23;4.43;;;1.73;;
75423;SDS011;64005;55.160;36.002;2023-07-29T20:34:52;4.95;;;1.80;;
75423;SDS011;64005;55.160;36.002;2023-07-29T20:37:20;6.20;;;1.85;;
75423;SDS011;64005;55.160;36.002;2023-07-29T20:39:47;8.07;;;1.85;;
75423;SDS011;64005;55.160;36.002;2023-07-29T20:42:14;5.97;;;1.63;;
75423;SDS011;64005;55.160;36.002;2023-07-29T20:44:42;5.10;;;1.70;;
75423;SDS011;64005;55.160;36.002;2023-07-29T20:47:10;9.30;;;1.77;;
75423;SDS011;64005;55.160;36.002;2023-07-29T20:49:38;9.40;;;2.00;;
75423;SDS011;64005;55.160;36.002;2023-07-29T20:52:10;3.65;;;1.40;;
75423;SDS011;64005;55.160;36.002;2023-07-29T20:54:38;4.82;;;1.70;;
75423;SDS011;64005;55.160;36.002;2023-07-29T20:57:06;6.28;;;2.70;;
75423;SDS011;64005;55.160;36.002;2023-07-29T20:59:35;6.07;;;1.65;;
75423;SDS011;64005;55.160;36.002;2023-07-29T21:02:02;8.73;;;1.88;;
75423;SDS011;64005;55.160;36.002;2023-07-29T21:04:30;8.48;;;1.50;;
75423;SDS011;64005;55.160;36.002;2023-07-29T21:06:59;7.07;;;1.70;;
75423;SDS011;64005;55.160;36.002;2023-07-29T21:09:28;7.85;;;1.63;;
75423;SDS011;64005;55.160;36.002;2023-07-29T21:11:55;5.95;;;2.00;;
75423;SDS011;64005;55.160;36.002;2023-07-29T21:14:30;4.72;;;2.50;;